Time;durP1;ratioP1;P1;durP2;ratioP2;P2;SDS_P1;SDS_P2;PMS_P1;PMS_P2;Temp;Humidity;BMP_temperature;BMP_pressure;BME280_temperature;BME280_humidity;BME280_pressure;Samples;Min_cycle;Max_cycle;Signal;HPM_P1;HPM_P2
2022/07/19 00:00:49;;;;;;;7.18;2.50;;;;;;;15.68;60.51;99084.72;4136508;28;20554;-70
2022/07/19 00:02:51;;;;;;;6.40;2.60;;;;;;;15.61;60.02;99082.69;4136145;28;20053;-70
2022/07/19 00:04:52;;;;;;;5.28;2.30;;;;;;;15.60;59.88;99075.50;4134495;28;20053;-70
2022/07/19 00:06:54;;;;;;;7.10;2.95;;;;;;;15.56;61.33;99077.50;4135232;28;20132;-70
2022/07/19 00:08:55;;;;;;;;;;;;;;;15.51;60.27;99072.31;4136138;28;20052;-70
2022/07/19 00:10:55;;;;;;;4.63;2.33;;;;;;;15.47;60.76;99074.28;4134775;28;19953;-70
2022/07/19 00:12:56;;;;;;;5.13;2.35;;;;;;;15.49;60.20;99079.50;4135353;28;20204;-70
2022/07/19 00:14:56;;;;;;;5.55;2.65;;;;;;;15.43;60.76;99074.28;4134831;28;20049;-70
2022/07/19 00:16:56;;;;;;;4.00;2.25;;;;;;;15.39;61.95;99081.03;4136402;28;20046;-70
2022/07/19 00:18:56;;;;;;;7.15;2.53;;;;;;;15.40;61.54;99077.88;4135049;28;20135;-70
2022/07/19 00:20:57;;;;;;;4.82;2.47;;;;;;;15.29;63.60;99085.41;4134544;28;20518;-70
2022/07/19 00:22:57;;;;;;;4.68;2.45;;;;;;;15.23;63.89;99077.84;4138082;28;20311;-70
2022/07/19 00:24:57;;;;;;;5.05;2.47;;;;;;;15.20;63.38;99075.84;4137823;28;20627;-70
2022/07/19 00:26:58;;;;;;;4.32;2.30;;;;;;;15.17;63.60;99083.81;4136726;28;20038;-70
2022/07/19 00:29:00;;;;;;;3.83;2.40;;;;;;;15.15;63.10;99082.59;4136316;28;20070;-70
2022/07/19 00:31:01;;;;;;;7.30;2.47;;;;;;;15.10;62.79;99071.84;4138431;28;20440;-70
2022/07/19 00:33:04;;;;;;;7.43;2.55;;;;;;;15.08;63.28;99082.59;4138262;28;20034;-70
2022/07/19 00:35:05;;;;;;;6.65;2.40;;;;;;;15.07;63.26;99083.78;4136682;28;20054;-70
2022/07/19 00:37:05;;;;;;;7.32;2.42;;;;;;;15.06;62.44;99069.03;4139906;28;20153;-70
2022/07/19 00:39:05;;;;;;;3.95;2.45;;;;;;;15.03;62.67;99074.59;4138287;28;20074;-70
2022/07/19 00:41:06;;;;;;;8.82;2.90;;;;;;;14.95;63.61;99079.34;4138015;28;20477;-70
2022/07/19 00:43:07;;;;;;;3.50;2.50;;;;;;;14.83;64.21;99069.34;4138287;28;20449;-69
2022/07/19 00:45:08;;;;;;;7.53;2.78;;;;;;;14.82;64.08;99078.91;4138500;28;20153;-69
2022/07/19 00:47:08;;;;;;;4.10;2.85;;;;;;;14.79;63.99;99070.53;4138035;28;20482;-70
2022/07/19 00:49:09;;;;;;;4.25;2.50;;;;;;;14.76;64.65;99071.31;4137614;28;20169;-70
2022/07/19 00:51:11;;;;;;;7.72;2.97;;;;;;;14.76;64.48;99069.31;4136502;28;20117;-69
2022/07/19 00:53:14;;;;;;;6.85;2.60;;;;;;;14.73;65.17;99072.09;4138362;28;20103;-69
2022/07/19 00:55:17;;;;;;;7.20;2.63;;;;;;;14.73;64.96;99063.72;4138327;28;20375;-69
2022/07/19 00:57:18;;;;;;;6.05;2.70;;;;;;;14.66;65.38;99067.31;4138223;28;20046;-69
2022/07/19 00:59:18;;;;;;;4.78;2.38;;;;;;;14.62;65.60;99069.25;4137916;28;20048;-69
2022/07/19 01:01:19;;;;;;;5.38;2.70;;;;;;;14.57;65.75;99061.28;4137774;28;20096;-69
2022/07/19 01:03:20;;;;;;;4.97;2.55;;;;;;;14.53;65.58;99064.03;4137217;28;20053;-69
2022/07/19 01:05:20;;;;;;;6.82;2.60;;;;;;;14.48;65.86;99066.41;4137691;28;20367;-69
2022/07/19 01:07:21;;;;;;;5.82;2.88;;;;;;;14.41;66.34;99067.16;4137560;28;20049;-70
2022/07/19 01:09:21;;;;;;;7.88;2.83;;;;;;;14.40;65.83;99065.56;4137516;28;20402;-69
2022/07/19 01:11:21;;;;;;;4.78;2.45;;;;;;;14.40;65.71;99062.78;4137452;28;20034;-69
2022/07/19 01:13:22;;;;;;;5.57;2.83;;;;;;;14.39;65.40;99063.13;4136511;28;20056;-69
2022/07/19 01:15:25;;;;;;;4.68;2.65;;;;;;;14.32;65.61;99069.47;4136384;28;20077;-69
2022/07/19 01:17:26;;;;;;;3.50;2.20;;;;;;;14.27;65.74;99065.06;4137970;28;20045;-69
2022/07/19 01:19:26;;;;;;;7.28;2.83;;;;;;;14.22;66.50;99068.22;4137562;28;20050;-69
2022/07/19 01:21:27;;;;;;;5.10;2.30;;;;;;;14.13;65.92;99059.41;4137005;28;20049;-69
2022/07/19 01:23:27;;;;;;;3.88;2.22;;;;;;;14.11;66.64;99072.91;4137190;28;20046;-69
2022/07/19 01:25:30;;;;;;;4.63;2.25;;;;;;;14.12;65.32;99065.38;4137198;28;20626;-69
2022/07/19 01:27:31;;;;;;;5.13;2.30;;;;;;;14.15;65.74;99070.97;4138433;28;20502;-69
2022/07/19 01:29:32;;;;;;;4.53;2.63;;;;;;;14.08;67.46;99070.13;4136370;28;20303;-69
2022/07/19 01:31:32;;;;;;;5.30;2.17;;;;;;;14.00;67.59;99070.06;4138235;28;20132;-69
2022/07/19 01:33:41;;;;;;;7.55;2.63;;;;;;;13.97;67.14;99061.69;4135961;28;20078;-69
2022/07/19 01:35:42;;;;;;;4.85;2.40;;;;;;;13.93;67.59;99072.78;4137709;28;20053;-69
2022/07/19 01:37:42;;;;;;;8.38;2.90;;;;;;;13.88;68.85;99064.00;4137487;28;20053;-69
2022/07/19 01:39:43;;;;;;;9.50;2.30;;;;;;;13.86;67.32;99064.41;4137626;28;20182;-69
2022/07/19 01:41:43;;;;;;;3.63;2.38;;;;;;;13.86;67.32;99064.41;4137396;28;20034;-69
2022/07/19 01:43:44;;;;;;;3.00;2.15;;;;;;;13.81;67.65;99064.75;4136761;28;20127;-69
2022/07/19 01:45:45;;;;;;;6.13;2.38;;;;;;;13.82;67.54;99068.31;4137082;28;20374;-69
2022/07/19 01:47:46;;;;;;;5.50;2.22;;;;;;;13.78;68.75;99065.53;4135692;28;20134;-69
2022/07/19 01:49:46;;;;;;;4.75;2.30;;;;;;;13.76;68.59;99077.03;4136701;28;20394;-69
2022/07/19 01:51:47;;;;;;;3.58;2.30;;;;;;;13.67;69.04;99071.00;4136880;28;20041;-69
2022/07/19 01:53:47;;;;;;;4.57;2.25;;;;;;;13.65;69.73;99067.81;4136150;28;20038;-69
2022/07/19 01:55:47;;;;;;;4.22;2.55;;;;;;;13.59;70.10;99069.34;4137367;28;20054;-69
2022/07/19 01:57:49;;;;;;;5.63;2.38;;;;;;;13.55;69.67;99073.25;4136524;28;20046;-69
2022/07/19 01:59:49;;;;;;;3.33;2.20;;;;;;;13.52;68.98;99065.69;4137324;28;20045;-69
2022/07/19 02:01:49;;;;;;;4.05;2.65;;;;;;;13.54;69.21;99068.88;4136443;28;20517;-69
2022/07/19 02:03:50;;;;;;;3.40;2.38;;;;;;;13.45;69.76;99064.44;4135163;28;20157;-69
2022/07/19 02:05:50;;;;;;;5.03;2.65;;;;;;;13.45;69.81;99072.78;4136821;28;20478;-69
2022/07/19 02:07:51;;;;;;;3.85;2.40;;;;;;;13.39;70.19;99062.38;4137807;28;20483;-69
2022/07/19 02:09:51;;;;;;;4.32;2.40;;;;;;;13.36;70.81;99065.94;4136391;28;20052;-69
2022/07/19 02:11:51;;;;;;;4.80;2.42;;;;;;;13.31;70.56;99061.53;4135719;28;20050;-69
2022/07/19 02:13:52;;;;;;;3.33;2.35;;;;;;;13.26;70.44;99063.88;4136988;28;20132;-69
2022/07/19 02:15:52;;;;;;;5.20;2.60;;;;;;;13.21;70.70;99060.25;4136611;28;20436;-69
2022/07/19 02:17:52;;;;;;;6.05;2.70;;;;;;;13.20;70.22;99064.19;4137321;28;20138;-69
2022/07/19 02:19:53;;;;;;;5.40;2.47;;;;;;;13.20;69.51;99066.19;4136470;28;20100;-69
2022/07/19 02:21:53;;;;;;;4.78;2.58;;;;;;;13.21;69.08;99057.47;4136487;28;20125;-69
2022/07/19 02:23:53;;;;;;;5.38;2.80;;;;;;;13.19;69.73;99051.50;4136435;28;20112;-69
2022/07/19 02:25:54;;;;;;;3.90;2.30;;;;;;;13.20;70.32;99055.06;4136828;28;20050;-69
2022/07/19 02:27:54;;;;;;;6.50;3.22;;;;;;;13.14;70.90;99059.34;4136451;28;20042;-69
2022/07/19 02:29:55;;;;;;;6.45;2.40;;;;;;;13.11;70.41;99054.53;4136944;28;20081;-69
2022/07/19 02:31:55;;;;;;;4.28;2.22;;;;;;;13.09;71.33;99054.13;4136005;28;20058;-69
2022/07/19 02:33:55;;;;;;;5.80;2.97;;;;;;;13.07;70.72;99060.06;4136331;28;20060;-69
2022/07/19 02:35:56;;;;;;;5.45;2.53;;;;;;;13.02;71.28;99052.06;4128669;28;20383;-69
2022/07/19 02:37:56;;;;;;;8.80;2.83;;;;;;;12.97;71.71;99057.97;4136790;28;20042;-69
2022/07/19 02:39:56;;;;;;;3.67;2.30;;;;;;;12.92;71.68;99061.91;4136628;28;20046;-69
2022/07/19 02:41:57;;;;;;;3.65;2.55;;;;;;;12.87;71.50;99051.13;4135347;28;20157;-69
2022/07/19 02:43:57;;;;;;;6.15;3.00;;;;;;;12.86;71.60;99057.84;4136411;28;20152;-69
2022/07/19 02:45:58;;;;;;;4.85;3.03;;;;;;;12.83;71.57;99058.63;4136792;28;20054;-69
2022/07/19 02:47:58;;;;;;;7.10;2.53;;;;;;;12.80;71.10;99059.34;4135665;28;20053;-69
2022/07/19 02:49:58;;;;;;;4.70;2.85;;;;;;;12.76;71.46;99058.53;4135848;28;20127;-69
2022/07/19 02:51:59;;;;;;;8.63;2.80;;;;;;;12.72;71.54;99054.09;4135808;28;20487;-69
2022/07/19 02:53:59;;;;;;;6.95;2.58;;;;;;;12.74;70.55;99058.09;4134286;28;20049;-69
2022/07/19 02:55:59;;;;;;;6.47;3.03;;;;;;;12.72;70.72;99059.66;4135702;28;20130;-69
2022/07/19 02:58:00;;;;;;;7.18;3.22;;;;;;;12.69;71.42;99058.44;4136287;28;20037;-69
2022/07/19 03:00:00;;;;;;;12.35;3.08;;;;;;;12.68;70.96;99061.59;4135346;28;20138;-69
2022/07/19 03:02:01;;;;;;;7.95;2.60;;;;;;;12.64;71.18;99061.53;4136459;28;20104;-69
2022/07/19 03:04:01;;;;;;;5.68;3.75;;;;;;;12.57;72.52;99059.47;4135713;28;20068;-69
2022/07/19 03:06:02;;;;;;;5.18;2.65;;;;;;;12.56;72.72;99066.19;4136304;28;20418;-69
2022/07/19 03:08:02;;;;;;;5.85;3.00;;;;;;;12.55;72.90;99069.34;4135983;28;20424;-69
2022/07/19 03:10:03;;;;;;;6.65;2.80;;;;;;;12.49;72.86;99062.53;4135937;28;20038;-69
2022/07/19 03:12:04;;;;;;;7.40;3.25;;;;;;;12.49;72.84;99062.53;4134519;28;20395;-69
2022/07/19 03:14:04;;;;;;;5.95;2.78;;;;;;;12.48;72.96;99063.72;4135683;28;20045;-69
2022/07/19 03:16:06;;;;;;;4.70;3.00;;;;;;;12.46;73.37;99061.31;4135675;28;20097;-69
2022/07/19 03:18:06;;;;;;;5.15;2.60;;;;;;;12.44;73.18;99065.66;4135446;28;20065;-69
2022/07/19 03:20:08;;;;;;;4.90;2.67;;;;;;;12.40;72.60;99062.81;4136080;28;20061;-69
2022/07/19 03:22:08;;;;;;;4.93;3.47;;;;;;;12.32;73.32;99064.69;4135139;28;20061;-69
2022/07/19 03:24:08;;;;;;;13.60;3.33;;;;;;;12.35;71.72;99063.94;4136094;28;20328;-69
2022/07/19 03:26:09;;;;;;;11.27;3.38;;;;;;;12.31;71.80;99063.09;4135900;28;20044;-69
2022/07/19 03:28:10;;;;;;;5.65;3.13;;;;;;;12.33;71.88;99057.19;4136066;28;20437;-69
2022/07/19 03:30:10;;;;;;;12.73;3.33;;;;;;;12.30;72.66;99063.47;4135871;28;20060;-69
2022/07/19 03:32:11;;;;;;;4.07;2.47;;;;;;;12.26;73.23;99065.41;4135129;28;20030;-69
2022/07/19 03:34:11;;;;;;;6.85;2.70;;;;;;;12.24;72.43;99065.75;4135579;28;20022;-69
2022/07/19 03:36:12;;;;;;;11.38;2.55;;;;;;;12.20;72.78;99062.16;4134896;28;20017;-69
2022/07/19 03:38:13;;;;;;;5.90;2.50;;;;;;;12.20;73.45;99069.69;4136875;28;20038;-69
2022/07/19 03:40:14;;;;;;;6.13;2.55;;;;;;;12.16;73.51;99066.84;4135371;28;20044;-69
2022/07/19 03:42:14;;;;;;;3.53;2.70;;;;;;;12.13;74.21;99061.25;4135959;28;20034;-69
2022/07/19 03:44:14;;;;;;;4.05;2.58;;;;;;;12.12;74.00;99070.75;4136066;28;20087;-68
2022/07/19 03:46:15;;;;;;;6.28;2.67;;;;;;;12.13;74.09;99075.91;4135502;28;20390;-69
2022/07/19 03:48:17;;;;;;;3.88;2.67;;;;;;;12.13;74.17;99075.13;4136187;28;20095;-69
2022/07/19 03:50:17;;;;;;;4.00;2.45;;;;;;;12.13;74.63;99073.13;4134346;28;20034;-69
2022/07/19 03:52:18;;;;;;;6.53;2.50;;;;;;;12.11;74.48;99074.69;4136071;28;20108;-69
2022/07/19 03:54:18;;;;;;;4.13;2.33;;;;;;;12.09;74.88;99070.31;4135421;28;20037;-69
2022/07/19 03:56:20;;;;;;;6.20;2.70;;;;;;;12.10;74.61;99071.13;4135250;28;20032;-69
2022/07/19 03:58:20;;;;;;;7.32;2.45;;;;;;;12.08;74.68;99071.50;4138968;28;20038;-69
2022/07/19 04:00:21;;;;;;;6.93;2.88;;;;;;;12.08;74.70;99073.44;4139055;28;20133;-69
2022/07/19 04:02:21;;;;;;;4.75;2.58;;;;;;;12.09;75.11;99075.06;4136267;28;20410;-69
2022/07/19 04:04:22;;;;;;;11.15;3.05;;;;;;;12.16;75.44;99077.13;4137271;28;20052;-69
2022/07/19 04:06:22;;;;;;;6.53;2.75;;;;;;;12.18;75.41;99072.03;4136577;28;20149;-69
2022/07/19 04:08:22;;;;;;;4.65;2.65;;;;;;;12.23;75.36;99077.25;4132943;28;20755;-69
2022/07/19 04:10:23;;;;;;;7.50;3.22;;;;;;;12.24;74.78;99076.06;4134952;28;20132;-69
2022/07/19 04:12:26;;;;;;;12.00;3.10;;;;;;;12.27;75.01;99076.13;4137189;28;20070;-69
2022/07/19 04:14:26;;;;;;;10.30;3.70;;;;;;;12.28;75.33;99080.50;4135986;28;20393;-69
2022/07/19 04:16:27;;;;;;;10.55;3.20;;;;;;;12.30;74.74;99075.38;4137219;28;20046;-69
2022/07/19 04:18:27;;;;;;;7.03;3.08;;;;;;;12.39;74.88;99083.41;4135871;28;20430;-69
2022/07/19 04:20:28;;;;;;;8.18;2.90;;;;;;;12.38;74.59;99081.81;4136818;28;20054;-69
2022/07/19 04:22:28;;;;;;;6.72;2.92;;;;;;;12.42;74.45;99087.44;4136855;28;20141;-69
2022/07/19 04:24:28;;;;;;;4.85;2.97;;;;;;;12.47;74.18;99089.88;4135056;28;20070;-69
2022/07/19 04:26:29;;;;;;;6.30;3.20;;;;;;;12.51;74.12;99079.63;4137215;28;20046;-69
2022/07/19 04:28:29;;;;;;;5.43;2.97;;;;;;;12.54;74.17;99073.31;4134362;28;20042;-68
2022/07/19 04:30:29;;;;;;;8.00;2.95;;;;;;;12.63;74.22;99082.94;4134575;28;20073;-69
2022/07/19 04:32:31;;;;;;;7.13;3.85;;;;;;;12.66;74.43;99075.88;4137228;28;20100;-69
2022/07/19 04:34:31;;;;;;;6.47;2.80;;;;;;;12.74;74.23;99076.72;4134939;28;20096;-69
2022/07/19 04:36:32;;;;;;;6.20;3.15;;;;;;;12.82;74.01;99078.41;4135971;28;20049;-69
2022/07/19 04:38:32;;;;;;;5.70;3.25;;;;;;;12.91;73.59;99079.75;4134510;28;20611;-69
2022/07/19 04:40:32;;;;;;;6.60;2.90;;;;;;;13.00;73.49;99078.66;4137061;28;20639;-69
2022/07/19 04:42:33;;;;;;;4.10;2.70;;;;;;;13.10;73.06;99083.50;4136677;28;20766;-69
2022/07/19 04:44:33;;;;;;;5.95;3.28;;;;;;;13.21;72.58;99081.66;4136438;28;20395;-69
2022/07/19 04:46:34;;;;;;;7.20;2.95;;;;;;;13.33;72.01;99084.19;4137494;28;20100;-69
2022/07/19 04:48:34;;;;;;;7.43;3.67;;;;;;;13.45;70.67;99088.66;4136843;28;20050;-69
2022/07/19 04:50:35;;;;;;;6.38;3.25;;;;;;;13.55;71.09;99093.53;4137062;28;20042;-69
2022/07/19 04:52:35;;;;;;;8.05;3.15;;;;;;;13.67;70.76;99089.66;4135781;28;20042;-69
2022/07/19 04:54:35;;;;;;;7.70;2.90;;;;;;;13.77;70.37;99086.97;4072130;28;20367;-69
2022/07/19 04:56:36;;;;;;;8.15;3.92;;;;;;;13.91;70.35;99091.84;4135583;28;20371;-69
2022/07/19 04:58:36;;;;;;;7.55;3.10;;;;;;;14.04;70.09;99097.91;4135895;28;20133;-69
2022/07/19 05:00:36;;;;;;;7.45;3.45;;;;;;;14.19;69.40;99088.47;4134475;28;20298;-69
2022/07/19 05:02:37;;;;;;;7.55;2.80;;;;;;;14.31;69.17;99085.38;4135286;28;20062;-69
2022/07/19 05:04:37;;;;;;;5.85;3.53;;;;;;;14.44;69.19;99085.06;4137166;28;20084;-69
2022/07/19 05:06:38;;;;;;;7.13;3.20;;;;;;;14.59;68.38;99083.97;4137656;28;20226;-69
2022/07/19 05:08:38;;;;;;;6.72;3.50;;;;;;;14.72;67.75;99085.22;4136294;28;20092;-69
2022/07/19 05:10:38;;;;;;;8.95;3.35;;;;;;;14.85;67.58;99091.25;4136625;28;20047;-69
2022/07/19 05:12:40;;;;;;;10.50;3.97;;;;;;;15.00;67.06;99092.09;4137891;28;20488;-69
2022/07/19 05:14:40;;;;;;;11.93;3.75;;;;;;;15.12;66.80;99095.31;4137299;28;20663;-69
2022/07/19 05:16:40;;;;;;;5.95;3.15;;;;;;;15.29;66.86;99085.41;4136050;28;20041;-69
2022/07/19 05:18:41;;;;;;;6.57;3.33;;;;;;;15.40;67.07;99088.25;4136526;28;20053;-69
2022/07/19 05:20:41;;;;;;;5.25;2.55;;;;;;;15.55;66.37;99086.25;4137966;28;20046;-69
2022/07/19 05:22:43;;;;;;;7.70;3.05;;;;;;;15.67;65.89;99095.06;4134851;28;20061;-69
2022/07/19 05:24:43;;;;;;;8.80;3.58;;;;;;;15.81;64.57;99091.50;4135284;28;20053;-69
2022/07/19 05:26:44;;;;;;;6.85;3.47;;;;;;;15.94;64.30;99094.69;4136669;28;20401;-69
2022/07/19 05:28:44;;;;;;;8.00;3.38;;;;;;;16.04;64.61;99099.44;4135016;28;20476;-69
2022/07/19 05:30:45;;;;;;;8.25;3.63;;;;;;;16.17;64.23;99091.47;4137715;28;20438;-69
2022/07/19 05:32:45;;;;;;;5.28;3.42;;;;;;;16.26;63.84;99083.47;4138361;28;20192;-69
2022/07/19 05:34:45;;;;;;;7.75;3.45;;;;;;;16.39;63.47;99092.25;4136240;28;20604;-69
2022/07/19 05:36:46;;;;;;;4.57;3.30;;;;;;;16.48;62.99;99087.84;4137332;28;20073;-69
2022/07/19 05:38:46;;;;;;;8.98;3.60;;;;;;;16.60;62.74;99085.78;4137247;28;20049;-69
2022/07/19 05:40:47;;;;;;;9.45;3.97;;;;;;;16.68;61.28;99088.16;4138010;28;20042;-69
2022/07/19 05:42:48;;;;;;;4.43;3.22;;;;;;;16.77;61.37;99082.97;4138142;28;20042;-69
2022/07/19 05:44:48;;;;;;;11.45;3.85;;;;;;;16.87;61.11;99084.13;4137253;28;20038;-69
2022/07/19 05:46:49;;;;;;;5.80;2.92;;;;;;;16.99;60.78;99077.28;4137101;28;20045;-69
2022/07/19 05:48:49;;;;;;;4.75;3.03;;;;;;;17.06;60.79;99080.06;4135827;28;20474;-69
2022/07/19 05:50:50;;;;;;;8.20;3.75;;;;;;;17.21;60.66;99081.59;4137460;28;20386;-69
2022/07/19 05:52:50;;;;;;;9.25;3.45;;;;;;;17.31;59.60;99080.72;4137414;28;20042;-69
2022/07/19 05:54:50;;;;;;;6.00;3.42;;;;;;;17.43;59.84;99082.22;4135815;28;20215;-69
2022/07/19 05:56:51;;;;;;;12.23;3.30;;;;;;;17.52;59.21;99081.78;4137138;28;20743;-69
2022/07/19 05:58:51;;;;;;;7.07;3.58;;;;;;;17.63;60.05;99080.50;4136739;28;20053;-69
2022/07/19 06:01:34;;;;;;;8.27;3.53;;;;;;;17.77;58.59;99084.41;4136153;28;20186;-69
2022/07/19 06:03:15;;;;;;;5.30;3.20;;;;;;;17.88;58.31;99079.56;4133704;28;20395;-69
2022/07/19 06:05:16;;;;;;;4.90;3.30;;;;;;;17.99;56.98;99083.03;4137190;28;20399;-69
2022/07/19 06:07:16;;;;;;;5.47;3.50;;;;;;;18.11;56.55;99081.72;4137275;28;20412;-69
2022/07/19 06:09:17;;;;;;;6.18;3.30;;;;;;;18.25;56.20;99076.78;4137105;28;20046;-69
2022/07/19 06:11:18;;;;;;;10.65;3.53;;;;;;;18.36;55.60;99079.47;4136847;28;20050;-69
2022/07/19 06:13:18;;;;;;;6.80;3.20;;;;;;;18.46;54.96;99087.00;4135263;28;20061;-69
2022/07/19 06:15:18;;;;;;;7.75;3.45;;;;;;;18.52;54.48;99084.53;4137662;28;20042;-69
2022/07/19 06:17:19;;;;;;;6.15;3.22;;;;;;;18.60;54.62;99086.03;4136769;28;20046;-69
2022/07/19 06:19:19;;;;;;;7.38;2.90;;;;;;;18.68;54.53;99083.97;4135659;28;20129;-69
2022/07/19 06:21:21;;;;;;;6.80;3.97;;;;;;;18.78;54.25;99081.06;4136878;28;20073;-69
2022/07/19 06:23:21;;;;;;;7.22;3.33;;;;;;;18.88;53.35;99076.53;4136611;28;20049;-69
2022/07/19 06:25:22;;;;;;;6.40;3.08;;;;;;;18.99;52.75;99085.59;4136868;28;20475;-69
2022/07/19 06:27:22;;;;;;;4.28;3.13;;;;;;;19.12;53.02;99085.06;4136844;28;20068;-69
2022/07/19 06:29:23;;;;;;;4.38;2.97;;;;;;;19.25;52.68;99078.44;4136864;28;20526;-69
2022/07/19 06:31:23;;;;;;;3.35;2.63;;;;;;;19.39;51.79;99080.25;4136182;28;20058;-69
2022/07/19 06:33:24;;;;;;;4.55;2.95;;;;;;;19.50;50.82;99080.88;4136381;28;20072;-69
2022/07/19 06:35:25;;;;;;;5.43;2.70;;;;;;;19.58;50.34;99081.59;4137355;28;20258;-69
2022/07/19 06:37:26;;;;;;;5.10;2.70;;;;;;;19.64;50.86;99086.31;4135469;28;20403;-69
2022/07/19 06:39:26;;;;;;;6.28;2.85;;;;;;;19.71;50.19;99085.44;4135957;28;20054;-69
2022/07/19 06:41:26;;;;;;;5.95;2.70;;;;;;;19.85;51.08;99084.38;4137182;28;20069;-70
2022/07/19 06:43:27;;;;;;;5.80;2.83;;;;;;;20.14;49.34;99071.47;4135454;28;20442;-70
2022/07/19 06:45:27;;;;;;;7.00;3.03;;;;;;;20.36;48.54;99069.06;4135906;28;20394;-70
2022/07/19 06:47:28;;;;;;;4.70;3.22;;;;;;;20.59;48.19;99073.84;4136537;28;20125;-70
2022/07/19 06:49:29;;;;;;;5.25;3.00;;;;;;;20.74;47.53;99063.91;4136821;28;20045;-70
2022/07/19 06:51:29;;;;;;;6.65;3.15;;;;;;;20.91;46.72;99067.59;4135648;28;20399;-70
2022/07/19 06:53:30;;;;;;;7.22;3.10;;;;;;;21.15;46.50;99064.69;4136883;28;20490;-70
2022/07/19 06:55:30;;;;;;;10.63;3.22;;;;;;;21.34;45.65;99074.34;4136964;28;20042;-70
2022/07/19 06:57:30;;;;;;;6.63;2.80;;;;;;;21.42;46.40;99058.88;4135710;28;20042;-70
2022/07/19 06:59:31;;;;;;;4.03;2.70;;;;;;;21.54;45.70;99063.84;4135378;28;20375;-70
2022/07/19 07:01:31;;;;;;;6.95;2.78;;;;;;;21.61;43.91;99058.03;4134652;28;20096;-70
2022/07/19 07:03:31;;;;;;;4.95;2.67;;;;;;;21.68;44.92;99054.25;4134869;28;20245;-70
2022/07/19 07:05:32;;;;;;;4.97;2.65;;;;;;;21.72;45.17;99060.59;4136175;28;20089;-70
2022/07/19 07:07:33;;;;;;;5.80;2.42;;;;;;;21.78;45.06;99065.25;4136528;28;20041;-70
2022/07/19 07:09:33;;;;;;;5.28;3.10;;;;;;;21.88;44.99;99063.41;4136132;28;20041;-70
2022/07/19 07:11:36;;;;;;;7.05;3.00;;;;;;;21.98;45.11;99059.53;4135504;28;20045;-70
2022/07/19 07:13:38;;;;;;;7.55;3.05;;;;;;;22.11;44.39;99057.63;4136277;28;20056;-70
2022/07/19 07:15:39;;;;;;;12.00;2.90;;;;;;;22.25;44.00;99052.81;4136541;28;20049;-70
2022/07/19 07:17:40;;;;;;;6.13;2.78;;;;;;;22.39;43.65;99053.25;4136003;28;20133;-70
2022/07/19 07:19:40;;;;;;;5.50;3.40;;;;;;;22.53;43.39;99054.09;4135460;28;20076;-70
2022/07/19 07:21:41;;;;;;;10.13;3.13;;;;;;;22.63;42.50;99050.97;4136500;28;20081;-70
2022/07/19 07:23:41;;;;;;;3.92;2.90;;;;;;;22.76;41.44;99059.50;4135569;28;20120;-70
2022/07/19 07:25:42;;;;;;;5.97;3.08;;;;;;;22.88;40.99;99053.09;4136542;28;20737;-70
2022/07/19 07:27:42;;;;;;;4.47;3.05;;;;;;;22.98;41.21;99048.38;4136387;28;20050;-70
2022/07/19 07:29:42;;;;;;;4.18;2.67;;;;;;;23.09;40.94;99048.88;4135089;28;20628;-70
2022/07/19 07:31:43;;;;;;;6.20;2.92;;;;;;;23.18;39.88;99054.66;4136070;28;20355;-70
2022/07/19 07:33:43;;;;;;;4.63;2.80;;;;;;;23.27;40.75;99051.16;4135293;28;20041;-70
2022/07/19 07:35:44;;;;;;;4.43;2.60;;;;;;;23.40;39.39;99051.94;4136620;28;20286;-70
2022/07/19 07:37:44;;;;;;;7.63;2.92;;;;;;;23.58;38.12;99040.06;4134942;28;20050;-70
2022/07/19 07:39:44;;;;;;;5.55;3.00;;;;;;;23.68;39.00;99046.66;4132846;28;20859;-70
2022/07/19 07:41:45;;;;;;;5.35;2.75;;;;;;;23.80;39.40;99054.34;4136535;28;20038;-70
2022/07/19 07:43:45;;;;;;;6.07;2.65;;;;;;;23.93;38.59;99054.31;4135502;28;20062;-70
2022/07/19 07:45:45;;;;;;;6.10;3.00;;;;;;;24.01;38.30;99047.97;4135693;28;20035;-70
2022/07/19 07:47:46;;;;;;;5.35;2.67;;;;;;;24.09;38.37;99054.19;4136152;28;20053;-70
2022/07/19 07:49:46;;;;;;;5.70;2.97;;;;;;;24.13;38.59;99043.53;4135396;28;20057;-70
2022/07/19 07:51:47;;;;;;;7.55;2.80;;;;;;;24.32;36.80;99042.47;4135173;28;20104;-70
2022/07/19 07:53:47;;;;;;;4.75;2.75;;;;;;;24.50;36.71;99043.91;4135009;28;20077;-70
2022/07/19 07:55:48;;;;;;;5.88;2.95;;;;;;;24.65;36.14;99045.72;4136198;28;20046;-70
2022/07/19 07:57:48;;;;;;;4.43;2.67;;;;;;;24.80;36.75;99037.50;4135309;28;20129;-71
2022/07/19 07:59:48;;;;;;;5.85;2.50;;;;;;;24.97;36.04;99046.56;4135788;28;20069;-70
2022/07/19 08:01:49;;;;;;;6.32;2.58;;;;;;;25.08;35.93;99038.50;4134737;28;20104;-70
2022/07/19 08:03:49;;;;;;;6.97;2.78;;;;;;;25.20;36.18;99039.66;4136519;28;20696;-71
2022/07/19 08:05:50;;;;;;;3.47;2.20;;;;;;;25.30;35.82;99035.63;4135911;28;20470;-71
2022/07/19 08:07:50;;;;;;;6.95;2.72;;;;;;;25.40;36.15;99042.09;4134662;28;20394;-71
2022/07/19 08:09:50;;;;;;;12.32;5.00;;;;;;;25.44;35.99;99035.06;4135590;28;20045;-71
2022/07/19 08:11:51;;;;;;;9.40;3.05;;;;;;;25.54;36.01;99037.94;4135411;28;20696;-71
2022/07/19 08:13:51;;;;;;;5.20;2.83;;;;;;;25.66;35.07;99023.66;4136461;28;20141;-71
2022/07/19 08:15:51;;;;;;;4.75;2.70;;;;;;;25.72;35.36;99032.34;4134610;28;20585;-71
2022/07/19 08:17:52;;;;;;;4.35;2.35;;;;;;;25.83;34.77;99032.72;4134592;28;20054;-71
2022/07/19 08:19:52;;;;;;;9.73;2.75;;;;;;;25.97;33.63;99032.09;4135512;28;20061;-71
2022/07/19 08:21:52;;;;;;;15.73;3.15;;;;;;;26.36;31.67;99028.84;4136238;28;20042;-71
2022/07/19 08:23:53;;;;;;;6.25;2.63;;;;;;;26.58;32.68;99035.19;4136116;28;20172;-71
2022/07/19 08:25:54;;;;;;;7.75;3.10;;;;;;;26.85;32.20;99026.63;4135293;28;20363;-71
2022/07/19 08:27:54;;;;;;;10.57;2.65;;;;;;;27.05;31.95;99023.28;4136111;28;20309;-71
2022/07/19 08:29:54;;;;;;;8.60;2.70;;;;;;;27.15;31.90;99021.22;4136373;28;20054;-71
2022/07/19 08:31:55;;;;;;;8.20;2.33;;;;;;;27.21;31.35;99021.34;4134930;28;20046;-71
2022/07/19 08:33:55;;;;;;;4.57;2.50;;;;;;;27.27;31.38;99023.06;4135889;28;20041;-71
2022/07/19 08:35:56;;;;;;;5.45;2.85;;;;;;;27.35;30.15;99015.00;4135834;28;20132;-71
2022/07/19 08:37:56;;;;;;;4.38;2.22;;;;;;;27.38;29.61;99014.81;4135030;28;20049;-71
2022/07/19 08:39:56;;;;;;;7.40;2.30;;;;;;;27.37;29.02;99013.25;4134839;28;20057;-71
2022/07/19 08:41:57;;;;;;;4.47;2.58;;;;;;;27.57;28.66;99009.06;4135676;28;20062;-71
2022/07/19 08:44:01;;;;;;;5.80;2.10;;;;;;;27.56;28.11;99004.66;4137538;28;20384;-71
2022/07/19 08:46:03;;;;;;;7.07;2.38;;;;;;;27.63;27.78;99009.97;4137976;28;20065;-71
2022/07/19 08:48:06;;;;;;;4.43;2.60;;;;;;;27.70;27.50;99004.75;4137967;28;20382;-71
2022/07/19 08:50:08;;;;;;;4.43;2.40;;;;;;;27.93;27.03;99011.72;4138031;28;20056;-71
2022/07/19 08:52:09;;;;;;;3.92;2.33;;;;;;;28.08;27.27;99008.16;4131529;28;20133;-71
2022/07/19 08:54:10;;;;;;;5.68;2.50;;;;;;;28.22;28.38;99007.44;4136344;28;20103;-71
2022/07/19 08:58:29;;;;;;;5.95;2.40;;;;;;;28.39;25.73;99002.91;4138085;28;20531;-71
2022/07/19 09:00:32;;;;;;;4.30;2.20;;;;;;;28.50;26.78;99003.09;4138814;28;20125;-71
2022/07/19 09:02:32;;;;;;;;;;;;;;;28.54;27.03;99000.06;4138382;28;20046;-71
2022/07/19 09:04:32;;;;;;;4.17;2.37;;;;;;;28.53;26.75;98999.28;4137804;28;20368;-71
2022/07/19 09:06:43;;;;;;;4.40;2.33;;;;;;;28.54;27.01;99003.69;4137893;28;20273;-71
2022/07/19 09:08:46;;;;;;;5.78;2.30;;;;;;;28.57;25.83;98998.31;4137843;28;20510;-71
2022/07/19 09:13:11;;;;;;;4.10;2.33;;;;;;;28.65;27.07;98988.13;4138080;28;20045;-71
2022/07/19 09:15:11;;;;;;;9.25;2.58;;;;;;;28.64;27.06;98990.19;4137739;28;20061;-71
2022/07/19 09:17:19;;;;;;;4.32;2.60;;;;;;;28.75;27.21;99000.97;4138312;28;20073;-71
2022/07/19 09:19:20;;;;;;;4.00;2.28;;;;;;;28.80;26.56;98984.00;4137513;28;20081;-71
2022/07/19 09:21:20;;;;;;;5.50;2.30;;;;;;;28.95;26.17;98992.56;4137872;28;20504;-71
2022/07/19 09:23:21;;;;;;;6.30;2.28;;;;;;;29.13;25.67;98990.78;4138248;28;20140;-71
2022/07/19 09:25:42;;;;;;;3.67;2.42;;;;;;;29.33;24.72;98988.00;4137799;28;20390;-71
2022/07/19 09:27:57;;;;;;;6.70;2.60;;;;;;;29.50;25.11;98994.00;4137611;28;20107;-71
2022/07/19 09:29:59;;;;;;;4.72;2.20;;;;;;;29.63;24.70;98986.69;4136282;28;20050;-71
2022/07/19 09:32:08;;;;;;;4.95;2.20;;;;;;;29.64;24.83;98993.97;4137966;28;20421;-71
2022/07/19 09:34:09;;;;;;;4.53;2.30;;;;;;;29.78;24.32;98994.41;4136865;28;20046;-72